Time;durP1;ratioP1;P1;durP2;ratioP2;P2;SDS_P1;SDS_P2;PMS_P1;PMS_P2;Temp;Humidity;BMP_temperature;BMP_pressure;BME280_temperature;BME280_humidity;BME280_pressure;Samples;Min_cycle;Max_cycle;Signal;HPM_P1;HPM_P2
2022/06/17 00:01:12;;;;;;;;;10.00;8.00;;;;;26.34;33.03;101744.50;5078929;28;45342;-72
2022/06/17 00:03:37;;;;;;;;;9.00;9.00;;;;;26.38;33.49;101750.56;5082859;28;45404;-71
2022/06/17 00:06:04;;;;;;;;;10.00;9.75;;;;;26.30;33.51;101742.16;5082535;28;45382;-71
2022/06/17 00:08:40;;;;;;;;;10.25;7.00;;;;;26.30;33.38;101750.38;5082474;28;45725;-72
2022/06/17 00:11:17;;;;;;;;;9.75;8.75;;;;;26.29;33.19;101748.63;5080200;28;45372;-71
2022/06/17 00:13:43;;;;;;;;;11.00;8.25;;;;;26.29;33.10;101745.88;5082675;28;45501;-71
2022/06/17 00:16:13;;;;;;;;;10.00;10.00;;;;;26.27;33.26;101748.75;5081987;28;45228;-71
2022/06/17 00:18:40;;;;;;;;;8.25;8.25;;;;;26.19;33.74;101730.22;5082297;28;45415;-71
2022/06/17 00:21:05;;;;;;;;;9.75;8.00;;;;;26.25;33.57;101746.13;5078592;28;45403;-71
2022/06/17 00:23:31;;;;;;;;;7.00;7.00;;;;;26.16;33.30;101727.75;5072104;28;45305;-71
2022/06/17 00:25:56;;;;;;;;;10.75;10.00;;;;;26.18;33.68;101738.59;5082331;28;45800;-72
2022/06/17 00:28:23;;;;;;;;;7.50;7.50;;;;;26.20;33.99;101742.91;5064132;28;47994;-71
2022/06/17 00:30:50;;;;;;;;;9.50;8.50;;;;;26.17;34.30;101734.97;5081225;28;45254;-71
2022/06/17 00:33:17;;;;;;;;;11.00;11.00;;;;;26.06;34.70;101713.97;5081749;28;45343;-71
2022/06/17 00:35:49;;;;;;;;;9.75;9.00;;;;;26.06;34.37;101721.28;5081244;28;45349;-72
2022/06/17 00:38:21;;;;;;;;;11.25;9.50;;;;;26.13;34.18;101738.06;5082113;28;45473;-71
2022/06/17 00:40:47;;;;;;;;;10.25;10.25;;;;;26.04;34.28;101732.38;5080594;28;45637;-71
2022/06/17 00:43:26;;;;;;;;;12.50;10.00;;;;;26.01;34.41;101734.47;5081746;28;45548;-72
2022/06/17 00:46:05;;;;;;;;;11.00;11.00;;;;;26.01;34.97;101740.84;5069332;28;45418;-71
2022/06/17 00:48:39;;;;;;;;;11.00;11.00;;;;;26.03;34.49;101743.47;5081652;28;45435;-71
2022/06/17 00:51:24;;;;;;;;;8.75;8.75;;;;;26.00;34.62;101741.81;5080990;28;45388;-71
2022/06/17 00:53:56;;;;;;;;;12.25;12.25;;;;;25.93;35.21;101729.63;5049678;28;45339;-72
2022/06/17 00:56:30;;;;;;;;;10.00;9.50;;;;;25.94;34.56;101733.22;5081670;28;45408;-72
2022/06/17 00:59:09;;;;;;;;;11.75;11.75;;;;;25.97;34.77;101741.22;5081750;28;45472;-71
2022/06/17 01:01:50;;;;;;;;;9.25;8.75;;;;;25.89;35.11;101733.59;5080490;28;45431;-71
2022/06/17 01:04:24;;;;;;;;;12.00;11.00;;;;;25.90;35.11;101746.28;5082078;28;45287;-71
2022/06/17 01:06:56;;;;;;;;;11.00;11.00;;;;;25.89;35.66;101744.53;5068667;28;45233;-71
2022/06/17 01:12:14;;;;;;;;;13.00;12.00;;;;;25.81;35.82;101742.44;5073574;28;45468;-72
2022/06/17 01:14:41;;;;;;;;;10.50;10.50;;;;;25.76;35.95;101731.00;5080737;28;45311;-71
2022/06/17 01:17:10;;;;;;;;;13.25;13.25;;;;;25.81;35.87;101747.91;5081454;28;45294;-71
2022/06/17 01:19:44;;;;;;;;;14.00;14.00;;;;;25.78;36.22;101742.69;5081159;28;45488;-71
2022/06/17 01:22:27;;;;;;;;;14.50;13.00;;;;;25.80;35.71;101751.63;5079410;28;45570;-71
2022/06/17 01:25:08;;;;;;;;;10.00;10.00;;;;;25.72;35.79;101740.44;5081581;28;45353;-71
2022/06/17 01:27:40;;;;;;;;;11.25;11.25;;;;;25.75;36.06;101753.00;5081072;28;45374;-71
2022/06/17 01:30:08;;;;;;;;;10.25;10.25;;;;;25.70;35.99;101745.16;5081220;28;45313;-71
2022/06/17 01:32:47;;;;;;;;;14.50;13.00;;;;;25.68;36.00;101750.75;5061773;28;47065;-72
2022/06/17 01:35:13;;;;;;;;;14.50;13.00;;;;;25.62;36.18;101748.50;5081081;28;45529;-71
2022/06/17 01:37:38;;;;;;;;;12.75;12.00;;;;;25.60;36.61;101755.13;5063036;28;45392;-71
2022/06/17 01:40:05;;;;;;;;;13.00;12.25;;;;;25.56;36.59;101753.59;5080725;28;46077;-71
2022/06/17 01:42:33;;;;;;;;;12.75;12.75;;;;;25.57;36.40;101763.56;5079351;28;45492;-71
2022/06/17 01:44:59;;;;;;;;;8.75;8.75;;;;;25.54;36.28;101767.38;5080962;28;45428;-71
2022/06/17 01:47:28;;;;;;;;;15.00;14.00;;;;;25.49;36.45;101762.31;5080872;28;45325;-71
2022/06/17 01:50:00;;;;;;;;;12.00;12.00;;;;;25.50;37.16;101766.78;5080735;28;45274;-71
2022/06/17 01:52:33;;;;;;;;;6.00;6.00;;;;;25.46;36.13;101765.28;5079945;28;45311;-71
2022/06/17 01:55:22;;;;;;;;;12.50;12.00;;;;;25.46;36.45;101769.88;5080918;28;45437;-72
2022/06/17 01:58:13;;;;;;;;;12.75;12.75;;;;;25.44;37.24;101774.59;5080871;28;45564;-71
2022/06/17 02:00:41;;;;;;;;;14.00;12.00;;;;;25.43;36.51;101772.88;5075099;28;47306;-71
2022/06/17 02:03:13;;;;;;;;;10.75;10.50;;;;;25.40;37.03;101776.69;5079605;28;45343;-71
2022/06/17 02:05:44;;;;;;;;;10.50;10.50;;;;;25.38;36.61;101794.22;5080994;28;45379;-72
2022/06/17 02:08:10;;;;;;;;;11.00;11.00;;;;;25.36;37.66;101791.59;5062259;28;45393;-71
2022/06/17 02:10:40;;;;;;;;;11.75;10.50;;;;;25.28;36.79;101774.94;5079989;28;45457;-71
2022/06/17 02:13:07;;;;;;;;;11.25;11.25;;;;;25.23;36.99;101772.53;5079476;28;45425;-71
2022/06/17 02:15:34;;;;;;;;;13.25;13.25;;;;;25.28;37.25;101785.88;5080524;28;45347;-71
2022/06/17 02:18:04;;;;;;;;;10.00;9.00;;;;;25.25;37.50;101800.59;5062042;28;45517;-71
2022/06/17 02:20:30;;;;;;;;;13.75;13.00;;;;;25.25;37.50;101805.19;5080265;28;45513;-71
2022/06/17 02:22:56;;;;;;;;;10.75;9.75;;;;;25.18;37.67;101803.94;5079257;28;45326;-71
2022/06/17 02:25:37;;;;;;;;;11.25;11.25;;;;;25.20;37.81;101805.56;5062422;28;45260;-71
2022/06/17 02:28:05;;;;;;;;;10.25;9.75;;;;;25.14;38.02;101800.56;5049293;28;45327;-72
2022/06/17 02:30:31;;;;;;;;;9.50;9.00;;;;;25.09;38.21;101791.84;5080279;28;46223;-71
2022/06/17 02:33:03;;;;;;;;;8.00;7.50;;;;;25.13;37.24;101805.16;5078335;27;45360;-72
2022/06/17 02:35:48;;;;;;;;;12.25;9.75;;;;;25.14;38.19;101811.47;5080113;28;45366;-72
2022/06/17 02:38:17;;;;;;;;;10.75;10.75;;;;;25.10;37.52;101810.00;5062320;28;45589;-71
2022/06/17 02:40:47;;;;;;;;;11.75;9.25;;;;;25.07;37.61;101811.09;5079182;28;45393;-72
2022/06/17 02:43:17;;;;;;;;;10.25;9.75;;;;;25.00;38.02;101792.56;5075394;28;45399;-71
2022/06/17 02:45:47;;;;;;;;;12.50;12.00;;;;;25.03;37.90;101804.13;5080119;28;45382;-72
2022/06/17 02:48:43;;;;;;;;;9.00;9.00;;;;;25.01;38.29;101803.38;5079780;28;45394;-71
2022/06/17 02:51:12;;;;;;;;;11.00;9.50;;;;;24.98;38.48;101806.34;5079908;28;47157;-72
2022/06/17 02:53:39;;;;;;;;;12.00;10.25;;;;;24.95;38.32;101810.16;5061592;28;45267;-71
2022/06/17 02:56:18;;;;;;;;;10.50;10.50;;;;;24.93;38.21;101803.09;5080256;28;45331;-71
2022/06/17 02:59:06;;;;;;;;;10.75;9.50;;;;;24.93;38.10;101808.56;5069936;28;45348;-71
2022/06/17 03:01:34;;;;;;;;;9.25;8.75;;;;;24.77;38.26;101792.47;5078776;27;46054;-72
2022/06/17 03:04:01;;;;;;;;;8.00;8.00;;;;;24.88;38.59;101805.31;5083900;28;45454;-71
2022/06/17 03:06:36;;;;;;;;;10.25;10.25;;;;;24.83;38.77;101802.06;5083537;28;45509;-72
2022/06/17 03:09:27;;;;;;;;;13.00;11.00;;;;;24.77;38.83;101806.13;5083287;28;45597;-71
2022/06/17 03:11:58;;;;;;;;;8.25;8.25;;;;;24.74;38.65;101809.06;5079854;28;45484;-71
2022/06/17 03:14:28;;;;;;;;;11.00;8.75;;;;;24.78;38.93;101810.59;5082189;28;45256;-72
2022/06/17 03:16:55;;;;;;;;;10.00;10.00;;;;;24.70;39.09;101802.13;5065320;28;45319;-71
2022/06/17 03:19:23;;;;;;;;;12.00;10.00;;;;;24.67;38.93;101796.88;5083201;28;45481;-71
2022/06/17 03:21:49;;;;;;;;;7.75;7.25;;;;;24.60;39.17;101786.41;5082367;27;46290;-71
2022/06/17 03:24:22;;;;;;;;;9.75;9.75;;;;;24.67;38.92;101788.69;5083178;28;45311;-71
2022/06/17 03:26:57;;;;;;;;;9.75;9.75;;;;;24.65;39.61;101793.41;5065055;28;45492;-71
2022/06/17 03:29:25;;;;;;;;;8.75;8.75;;;;;24.62;39.52;101791.75;5083107;28;45354;-71
2022/06/17 03:32:05;;;;;;;;;7.50;7.50;;;;;24.61;39.25;101798.22;5081855;28;46485;-71
2022/06/17 03:34:37;;;;;;;;;9.25;8.25;;;;;24.58;39.38;101787.53;5064537;28;46022;-72
2022/06/17 03:37:08;;;;;;;;;10.25;9.25;;;;;24.55;38.95;101780.44;5083238;28;45503;-71
2022/06/17 03:39:40;;;;;;;;;8.25;8.25;;;;;24.53;39.53;101773.34;5064322;28;45481;-71
2022/06/17 03:42:05;;;;;;;;;8.50;7.75;;;;;24.52;39.25;101779.78;5081145;28;46422;-71
2022/06/17 03:44:39;;;;;;;;;10.25;9.00;;;;;24.51;38.79;101772.59;5064440;28;45359;-71
2022/06/17 03:47:11;;;;;;;;;8.00;8.00;;;;;24.48;38.87;101754.56;5082917;28;45291;-71
2022/06/17 03:49:43;;;;;;;;;7.75;7.75;;;;;24.49;39.11;101758.16;5082717;28;45342;-71
2022/06/17 03:52:21;;;;;;;;;9.50;9.50;;;;;24.39;38.51;101758.88;5080862;28;45414;-71
2022/06/17 03:54:46;;;;;;;;;8.00;8.00;;;;;24.49;38.65;101793.63;5082954;28;45516;-71
2022/06/17 03:57:16;;;;;;;;;9.25;9.25;;;;;24.50;38.74;101803.59;5082528;28;45334;-71
2022/06/17 03:59:45;;;;;;;;;9.00;8.75;;;;;24.48;38.64;101792.78;5082468;28;45452;-71
2022/06/17 04:02:14;;;;;;;;;8.00;8.00;;;;;24.42;38.85;101782.31;5080431;27;45440;-71
2022/06/17 04:04:43;;;;;;;;;8.25;8.00;;;;;24.50;38.48;101809.03;5082601;28;45430;-71
2022/06/17 04:07:12;;;;;;;;;8.00;8.00;;;;;24.51;38.83;101814.38;5082898;28;45355;-71
2022/06/17 04:09:41;;;;;;;;;10.00;10.00;;;;;24.48;38.83;101811.03;5056818;28;45275;-71
2022/06/17 04:12:12;;;;;;;;;8.25;8.25;;;;;24.46;38.40;101807.50;5058076;28;48012;-71
2022/06/17 04:14:59;;;;;;;;;7.00;7.00;;;;;24.43;38.86;101800.44;5082023;28;45203;-71
2022/06/17 04:17:42;;;;;;;;;8.50;8.50;;;;;24.41;39.05;101800.56;5064340;28;45257;-71
2022/06/17 04:20:49;;;;;;;;;9.50;8.50;;;;;24.35;38.57;101798.28;5070700;28;45477;-71
2022/06/17 04:23:21;;;;;;;;;9.00;7.75;;;;;24.37;39.03;101801.78;5075843;28;46505;-71
2022/06/17 04:25:58;;;;;;;;;8.00;8.00;;;;;24.32;38.93;101798.50;5082198;28;45840;-71
2022/06/17 04:28:34;;;;;;;;;7.50;7.50;;;;;24.23;38.76;101799.19;5064343;28;45295;-71
2022/06/17 04:31:06;;;;;;;;;6.75;6.75;;;;;24.24;39.22;101800.94;5082352;28;45674;-71
2022/06/17 04:33:45;;;;;;;;;5.75;4.50;;;;;24.30;39.00;101815.97;5080849;28;46263;-71
2022/06/17 04:36:18;;;;;;;;;8.00;8.00;;;;;24.24;39.05;101809.13;5069231;28;45516;-71
2022/06/17 04:38:55;;;;;;;;;11.50;10.75;;;;;24.15;39.05;101794.28;5081136;28;45345;-71
2022/06/17 04:41:37;;;;;;;;;9.00;8.50;;;;;24.20;39.46;101808.44;5080906;27;45528;-72
2022/06/17 04:44:05;;;;;;;;;6.25;6.25;;;;;24.21;39.64;101817.53;5080479;28;46201;-71
2022/06/17 04:46:37;;;;;;;;;10.50;8.00;;;;;24.22;39.46;101819.25;5081975;28;45301;-71
2022/06/17 04:49:05;;;;;;;;;7.75;7.75;;;;;24.21;39.32;101818.41;5068890;28;45421;-71
2022/06/17 04:51:33;;;;;;;;;10.50;10.50;;;;;24.19;40.06;101819.47;5081764;27;45365;-71
2022/06/17 04:53:59;;;;;;;;;11.25;11.25;;;;;24.20;39.80;101823.97;5051247;28;46136;-71
2022/06/17 04:56:31;;;;;;;;;9.25;9.25;;;;;24.18;39.72;101829.53;5081610;28;45367;-71
2022/06/17 04:58:57;;;;;;;;;10.75;8.25;;;;;24.15;39.81;101829.75;5081702;28;45423;-71
2022/06/17 05:01:24;;;;;;;;;9.50;8.50;;;;;24.12;39.83;101829.09;5081643;27;45526;-71
2022/06/17 05:03:50;;;;;;;;;9.75;9.50;;;;;24.12;39.53;101838.16;5080215;28;45979;-71
2022/06/17 05:06:16;;;;;;;;;9.25;9.00;;;;;24.10;39.71;101829.22;5081695;28;45319;-71
2022/06/17 05:08:57;;;;;;;;;7.25;7.25;;;;;24.09;39.74;101819.31;5081332;28;45563;-72
2022/06/17 05:11:25;;;;;;;;;10.50;8.25;;;;;24.06;39.29;101814.06;5079986;28;45387;-71
2022/06/17 05:13:52;;;;;;;;;9.00;7.00;;;;;24.08;39.65;101820.28;5081010;28;45647;-72
2022/06/17 05:16:18;;;;;;;;;10.25;8.00;;;;;24.05;39.52;101813.16;5062751;28;45274;-71
2022/06/17 05:18:43;;;;;;;;;8.00;8.00;;;;;24.03;39.63;101812.41;5081710;28;45800;-71
2022/06/17 05:21:18;;;;;;;;;9.00;9.00;;;;;24.06;39.85;101819.53;5079471;28;49720;-71
2022/06/17 05:23:44;;;;;;;;;8.00;8.00;;;;;24.05;40.01;101810.44;5081387;28;46070;-71
2022/06/17 05:26:10;;;;;;;;;9.00;9.00;;;;;24.04;39.88;101816.91;5081188;28;45418;-71
2022/06/17 05:28:35;;;;;;;;;8.25;8.25;;;;;23.99;40.17;101788.19;5081746;28;45335;-71
2022/06/17 05:31:00;;;;;;;;;9.00;8.25;;;;;23.94;40.04;101794.00;5077308;27;45614;-71
2022/06/17 05:33:26;;;;;;;;;10.00;10.00;;;;;23.98;39.95;101789.19;5081339;27;45445;-71
2022/06/17 05:35:51;;;;;;;;;8.50;8.00;;;;;24.03;40.09;101798.78;5080825;28;45433;-71
2022/06/17 05:38:17;;;;;;;;;8.25;8.00;;;;;24.00;39.95;101790.81;5080188;27;45461;-71
2022/06/17 05:40:43;;;;;;;;;8.75;8.75;;;;;24.00;39.82;101793.53;5079400;28;45556;-71
2022/06/17 05:43:11;;;;;;;;;10.25;8.75;;;;;23.94;39.51;101785.84;5079217;27;45303;-71
2022/06/17 05:45:36;;;;;;;;;7.00;7.00;;;;;23.95;40.05;101789.41;5062343;28;45339;-72
2022/06/17 05:48:01;;;;;;;;;9.00;8.50;;;;;24.01;40.07;101794.44;5080734;28;45354;-71
2022/06/17 05:50:29;;;;;;;;;11.50;10.75;;;;;24.01;39.73;101788.97;5079618;28;45525;-71
2022/06/17 05:52:57;;;;;;;;;7.25;7.00;;;;;24.01;39.93;101791.72;5080724;28;45346;-71
2022/06/17 05:55:24;;;;;;;;;10.25;10.00;;;;;24.00;40.25;101799.00;5080389;28;45459;-71
2022/06/17 05:57:52;;;;;;;;;9.25;9.25;;;;;23.94;40.75;101790.38;5078565;27;45454;-71
2022/06/17 06:00:18;;;;;;;;;9.50;9.00;;;;;23.99;40.51;101801.84;5079010;27;46558;-71
2022/06/17 06:02:44;;;;;;;;;10.75;10.50;;;;;23.98;40.75;101802.84;5080933;27;45371;-71
2022/06/17 06:05:19;;;;;;;;;12.00;11.25;;;;;24.01;40.56;101808.94;5051862;28;45373;-76
2022/06/17 06:07:44;;;;;;;;;7.50;6.75;;;;;24.03;40.62;101809.69;5061317;28;45188;-81
2022/06/17 06:10:10;;;;;;;;;8.00;8.00;;;;;24.01;40.42;101806.22;5062167;27;45652;-84
2022/06/17 06:12:57;;;;;;;;;8.50;8.50;;;;;23.97;40.54;101798.34;5079164;27;46418;-82
2022/06/17 06:15:30;;;;;;;;;10.50;9.00;;;;;24.01;40.55;101805.34;5058521;28;45434;-80
2022/06/17 06:18:12;;;;;;;;;10.75;10.50;;;;;24.02;40.66;101801.63;5062127;28;45291;-82
2022/06/17 06:20:38;;;;;;;;;11.50;8.00;;;;;24.03;41.47;101792.47;5063689;28;44690;-81
2022/06/17 06:23:03;;;;;;;;;11.25;8.50;;;;;23.94;40.76;101771.31;5060429;28;45321;-81
2022/06/17 06:25:29;;;;;;;;;8.50;8.25;;;;;24.00;40.92;101777.19;5058644;28;45255;-82
2022/06/17 06:27:55;;;;;;;;;8.75;8.50;;;;;24.04;40.63;101783.31;5055960;28;45249;-82
2022/06/17 06:30:29;;;;;;;;;12.50;9.00;;;;;24.07;40.56;101774.88;5050412;28;45774;-83
2022/06/17 06:33:01;;;;;;;;;11.00;9.00;;;;;24.02;40.80;101753.41;5049415;28;48433;-83
2022/06/17 06:35:35;;;;;;;;;12.25;11.25;;;;;23.92;40.27;101732.38;5058338;28;45595;-82
2022/06/17 06:38:00;;;;;;;;;12.25;9.75;;;;;23.96;40.64;101726.59;5056861;28;45509;-83
2022/06/17 06:40:27;;;;;;;;;11.50;10.50;;;;;24.05;40.99;101742.25;5055314;28;45552;-83
2022/06/17 06:42:53;;;;;;;;;10.25;9.75;;;;;24.15;40.49;101761.56;5037172;28;46335;-82
2022/06/17 06:45:30;;;;;;;;;6.50;6.50;;;;;24.09;41.13;101748.38;5053106;28;45312;-82
2022/06/17 06:47:58;;;;;;;;;11.75;10.75;;;;;24.11;41.17;101743.69;5048844;28;45271;-82
2022/06/17 06:50:26;;;;;;;;;7.00;7.00;;;;;24.21;41.00;101763.84;5058937;28;45290;-82
2022/06/17 06:52:51;;;;;;;;;11.00;9.25;;;;;24.27;40.99;101765.22;5059031;28;45441;-81
2022/06/17 06:55:17;;;;;;;;;10.50;10.50;;;;;24.21;40.69;101750.19;5058846;28;46748;-82
2022/06/17 06:57:59;;;;;;;;;11.00;10.75;;;;;24.28;40.83;101757.94;5059849;28;45343;-81
2022/06/17 07:00:29;;;;;;;;;9.25;9.25;;;;;24.26;41.36;101755.31;5059190;28;45313;-80
2022/06/17 07:02:55;;;;;;;;;10.25;10.00;;;;;24.31;41.06;101753.13;5058780;28;45345;-80
2022/06/17 07:05:20;;;;;;;;;9.25;9.25;;;;;24.40;41.25;101759.72;5058268;28;45456;-79
2022/06/17 07:07:46;;;;;;;;;11.00;11.00;;;;;24.43;40.88;101762.22;5059319;28;46104;-80
2022/06/17 07:10:20;;;;;;;;;12.25;11.00;;;;;24.46;41.26;101767.47;5052159;28;46931;-76
2022/06/17 07:12:47;;;;;;;;;10.75;10.00;;;;;24.52;41.21;101779.78;5052601;28;46476;-76
2022/06/17 07:15:13;;;;;;;;;9.50;9.50;;;;;24.54;40.48;101777.78;5064210;28;45505;-75
2022/06/17 07:17:39;;;;;;;;;10.25;9.00;;;;;24.55;40.76;101785.03;5071562;27;45513;-75
2022/06/17 07:20:23;;;;;;;;;9.75;9.75;;;;;24.61;40.75;101781.84;5057838;27;45460;-75
2022/06/17 07:22:49;;;;;;;;;11.75;10.75;;;;;24.65;40.67;101794.28;5074411;27;45570;-74
2022/06/17 07:25:14;;;;;;;;;11.50;11.25;;;;;24.69;41.04;101795.78;5077298;28;45591;-74
2022/06/17 07:27:40;;;;;;;;;12.25;12.25;;;;;24.73;41.30;101791.84;5078209;27;45438;-74
2022/06/17 07:30:06;;;;;;;;;15.50;11.25;;;;;24.77;40.70;101787.00;5073879;27;45927;-74
2022/06/17 07:32:31;;;;;;;;;17.75;12.00;;;;;24.79;41.38;101779.56;5065432;28;46723;-74
2022/06/17 07:34:57;;;;;;;;;10.75;10.75;;;;;24.84;41.24;101768.28;5059297;28;45344;-74
2022/06/17 07:40:06;;;;;;;;;12.00;10.75;;;;;24.99;41.55;101775.28;5078138;28;45577;-74
2022/06/17 07:42:38;;;;;;;;;12.25;10.50;;;;;25.02;39.90;101769.59;5077548;28;46172;-74
2022/06/17 07:45:06;;;;;;;;;13.00;13.00;;;;;25.19;40.63;101787.41;5077105;27;45545;-75
2022/06/17 07:47:31;;;;;;;;;14.50;13.00;;;;;25.22;40.90;101794.50;5074619;28;45762;-74
2022/06/17 07:49:57;;;;;;;;;13.75;12.50;;;;;25.36;39.73;101807.13;5082000;28;45299;-75
2022/06/17 07:52:22;;;;;;;;;10.75;10.75;;;;;25.43;39.38;101822.94;5082041;28;48707;-74
2022/06/17 07:54:48;;;;;;;;;11.50;11.50;;;;;25.52;39.48;101826.78;5063756;28;45296;-75
2022/06/17 07:57:14;;;;;;;;;15.25;13.25;;;;;25.59;39.86;101828.03;5081892;28;45752;-73
2022/06/17 07:59:39;;;;;;;;;13.00;11.75;;;;;25.66;40.12;101825.69;5081613;28;45383;-73
2022/06/17 08:02:05;;;;;;;;;9.75;8.50;;;;;25.67;39.91;101813.78;5063533;28;47165;-73
2022/06/17 08:04:32;;;;;;;;;10.25;10.25;;;;;25.73;39.20;101817.88;5079857;28;45506;-74
2022/06/17 08:06:57;;;;;;;;;10.25;10.00;;;;;25.85;39.20;101830.56;5062883;28;45704;-75
2022/06/17 08:09:23;;;;;;;;;13.75;11.50;;;;;25.91;39.84;101819.16;5081051;28;45515;-75
2022/06/17 08:11:49;;;;;;;;;11.00;11.00;;;;;25.93;39.65;101813.53;5079689;28;45450;-75
2022/06/17 08:14:15;;;;;;;;;11.50;11.50;;;;;26.13;39.94;101839.31;5081297;28;45476;-75
2022/06/17 08:16:40;;;;;;;;;10.25;9.50;;;;;26.15;39.49;101830.00;5081107;28;45463;-76
2022/06/17 08:19:07;;;;;;;;;10.00;10.00;;;;;26.21;39.28;101826.75;5080579;28;45351;-75
2022/06/17 08:21:33;;;;;;;;;13.25;11.25;;;;;26.24;38.97;101834.72;5080198;27;46162;-75
2022/06/17 08:23:58;;;;;;;;;7.50;7.50;;;;;26.40;38.96;101839.78;5081108;28;45288;-76
2022/06/17 08:26:24;;;;;;;;;11.25;10.00;;;;;26.48;38.92;101838.28;5081237;28;45351;-76
2022/06/17 08:28:51;;;;;;;;;16.75;15.75;;;;;26.57;38.59;101834.78;5080454;28;45735;-75
2022/06/17 08:31:16;;;;;;;;;9.00;9.00;;;;;26.59;38.58;101825.44;5080000;28;46639;-72
2022/06/17 08:33:41;;;;;;;;;10.25;10.25;;;;;26.62;38.26;101810.63;5079760;28;45299;-73
2022/06/17 08:36:15;;;;;;;;;11.00;9.25;;;;;26.73;38.29;101809.75;5081597;28;45396;-72
2022/06/17 08:39:02;;;;;;;;;9.50;9.00;;;;;26.85;38.44;101821.53;5080429;28;45967;-73
2022/06/17 08:41:34;;;;;;;;;9.00;9.00;;;;;26.90;38.14;101819.31;5062777;28;46220;-70
2022/06/17 08:44:07;;;;;;;;;11.00;10.00;;;;;26.97;38.04;101821.38;5077282;28;45513;-70
2022/06/17 08:46:51;;;;;;;;;10.00;10.00;;;;;27.07;38.19;101821.47;5073626;28;45269;-70
2022/06/17 08:49:53;;;;;;;;;8.50;8.50;;;;;27.08;37.30;101811.34;5070554;28;45468;-70
2022/06/17 08:52:37;;;;;;;;;11.75;11.25;;;;;27.14;37.92;101808.97;5045363;28;47445;-68
2022/06/17 08:55:27;;;;;;;;;11.00;10.00;;;;;27.18;37.85;101801.34;5074914;27;46318;-69
2022/06/17 08:58:17;;;;;;;;;9.50;9.00;;;;;27.26;37.60;101807.03;5054776;28;45518;-69
2022/06/17 09:00:49;;;;;;;;;10.00;9.00;;;;;27.33;37.37;101805.53;5071612;28;45417;-70
2022/06/17 09:03:42;;;;;;;;;9.25;8.00;;;;;27.40;36.28;101803.13;5075586;27;48901;-69
2022/06/17 09:07:02;;;;;;;;;8.25;8.25;;;;;27.49;36.07;101810.53;5079306;28;45304;-69
2022/06/17 09:09:51;;;;;;;;;9.25;9.00;;;;;27.54;36.31;101805.53;5078502;28;45616;-69
2022/06/17 09:12:46;;;;;;;;;11.75;10.00;;;;;27.62;36.19;101795.75;5074999;27;45410;-69
2022/06/17 09:15:14;;;;;;;;;10.25;10.00;;;;;27.66;36.07;101799.97;5058424;28;47246;-69
2022/06/17 09:18:23;;;;;;;;;7.00;7.00;;;;;27.68;34.31;101801.56;5059559;28;45290;-70
2022/06/17 09:20:56;;;;;;;;;7.25;6.25;;;;;27.74;34.34;101791.91;5058268;28;45534;-69
2022/06/17 09:23:25;;;;;;;;;7.75;7.75;;;;;27.81;35.13;101804.06;5061058;28;45483;-70
2022/06/17 09:25:55;;;;;;;;;7.75;7.75;;;;;27.85;34.58;101791.84;5058841;28;46166;-69
2022/06/17 09:28:29;;;;;;;;;10.00;10.00;;;;;27.94;33.94;101800.28;5055279;28;45560;-69
2022/06/17 09:31:18;;;;;;;;;7.00;7.00;;;;;27.93;33.95;101787.56;5058370;28;45353;-69
2022/06/17 09:34:14;;;;;;;;;8.25;8.25;;;;;27.95;33.73;101785.53;5059571;28;46206;-69
2022/06/17 09:36:46;;;;;;;;;8.00;8.00;;;;;28.07;34.00;101785.31;5056904;28;45611;-70
2022/06/17 09:39:27;;;;;;;;;8.50;7.00;;;;;28.11;34.16;101783.16;5058995;28;45658;-69
2022/06/17 09:42:01;;;;;;;;;8.00;6.50;;;;;28.13;33.58;101785.75;5058294;28;45264;-69
2022/06/17 09:44:42;;;;;;;;;9.25;9.25;;;;;28.17;33.84;101785.34;5057373;28;45828;-71
2022/06/17 09:47:19;;;;;;;;;8.25;7.00;;;;;28.27;33.52;101790.88;5059015;28;45492;-73
2022/06/17 09:49:55;;;;;;;;;10.50;8.50;;;;;28.32;34.43;101780.34;5058551;28;45422;-71
2022/06/17 09:52:28;;;;;;;;;6.25;6.25;;;;;28.42;34.22;101783.97;5055969;28;45526;-71
2022/06/17 09:55:01;;;;;;;;;9.00;7.50;;;;;28.46;33.57;101785.41;5057000;28;45272;-71
2022/06/17 09:57:32;;;;;;;;;8.50;8.50;;;;;28.45;33.68;101788.28;5055952;28;46402;-71
2022/06/17 10:00:06;;;;;;;;;8.00;7.00;;;;;28.49;33.50;101784.25;5057854;28;45524;-73
2022/06/17 10:02:51;;;;;;;;;5.75;5.75;;;;;28.58;32.75;101779.81;5058270;28;45588;-73
2022/06/17 10:05:53;;;;;;;;;6.00;6.00;;;;;28.63;31.79;101781.16;5050862;28;45548;-74
2022/06/17 10:08:21;;;;;;;;;7.25;6.00;;;;;28.68;32.20;101780.69;5057307;28;48034;-70
2022/06/17 10:11:14;;;;;;;;;5.50;5.50;;;;;28.68;31.66;101782.59;5049513;28;45498;-70
2022/06/17 10:14:16;;;;;;;;;6.25;6.25;;;;;28.68;32.65;101783.44;5052895;28;45505;-70
2022/06/17 10:19:50;;;;;;;;;7.25;5.50;;;;;28.80;32.48;101778.69;5076347;28;45474;-69
2022/06/17 10:22:40;;;;;;;;;8.25;8.25;;;;;28.85;32.54;101775.50;5078411;27;45355;-69
2022/06/17 10:25:27;;;;;;;;;8.00;8.00;;;;;28.86;32.33;101769.88;5072298;28;45347;-69
2022/06/17 10:28:19;;;;;;;;;11.00;9.00;;;;;28.94;31.93;101763.66;5060502;28;45964;-69
2022/06/17 10:31:03;;;;;;;;;9.00;7.25;;;;;28.98;31.43;101762.34;5078576;28;45603;-69
2022/06/17 10:33:32;;;;;;;;;6.25;6.25;;;;;29.00;31.42;101760.31;5079303;28;45343;-68
2022/06/17 10:35:59;;;;;;;;;6.75;6.75;;;;;29.00;31.45;101763.06;5072747;28;46013;-69
2022/06/17 10:38:30;;;;;;;;;4.50;4.50;;;;;29.07;31.35;101764.22;5074992;28;45509;-69
2022/06/17 10:40:55;;;;;;;;;7.75;6.75;;;;;29.12;30.92;101764.66;5075171;28;45732;-69
2022/06/17 10:43:32;;;;;;;;;5.50;5.50;;;;;29.08;31.16;101763.19;5074639;28;45379;-69
2022/06/17 10:45:58;;;;;;;;;4.25;4.00;;;;;29.18;31.35;101769.56;5074018;28;45577;-69
2022/06/17 10:48:45;;;;;;;;;5.00;5.00;;;;;29.25;31.07;101771.75;5074703;28;45521;-69
2022/06/17 10:51:11;;;;;;;;;7.75;7.75;;;;;29.27;29.90;101766.97;5075267;28;45516;-70
2022/06/17 10:53:47;;;;;;;;;3.50;3.00;;;;;29.34;29.70;101765.38;5075292;28;45458;-70
2022/06/17 10:56:19;;;;;;;;;4.75;4.75;;;;;29.32;29.57;101764.63;5074851;28;45704;-70
2022/06/17 10:59:06;;;;;;;;;4.50;4.50;;;;;29.32;29.75;101768.28;5071426;27;45542;-69
2022/06/17 11:01:55;;;;;;;;;7.25;7.00;;;;;29.13;29.62;101738.88;5071574;28;45963;-70
2022/06/17 11:04:26;;;;;;;;;5.75;5.75;;;;;29.34;29.31;101763.47;5075225;28;45769;-70
2022/06/17 11:07:14;;;;;;;;;8.25;7.25;;;;;29.36;29.35;101766.09;5072435;28;45472;-70
2022/06/17 11:09:48;;;;;;;;;9.75;8.00;;;;;29.33;29.77;101774.63;5074024;28;45559;-70
2022/06/17 11:12:19;;;;;;;;;7.25;7.25;;;;;29.27;29.86;101759.59;5072340;27;46141;-70
2022/06/17 11:14:45;;;;;;;;;6.50;6.25;;;;;29.33;30.23;101766.38;5073614;28;45748;-70
2022/06/17 11:17:18;;;;;;;;;6.67;6.67;;;;;29.37;30.59;101770.59;5079361;27;45735;-69
2022/06/17 11:19:49;;;;;;;;;6.50;6.50;;;;;29.35;30.16;101769.84;5079521;27;45540;-70
2022/06/17 11:22:24;;;;;;;;;10.00;8.50;;;;;29.39;30.17;101782.28;5059328;28;48379;-69
2022/06/17 11:24:57;;;;;;;;;9.25;8.00;;;;;29.48;30.23;101775.03;5077415;27;46111;-70
2022/06/17 11:27:27;;;;;;;;;5.75;5.00;;;;;29.54;30.14;101766.19;5058583;28;45504;-70
2022/06/17 11:29:55;;;;;;;;;6.25;6.25;;;;;29.59;29.46;101768.47;5079143;28;45835;-69
2022/06/17 11:32:20;;;;;;;;;6.25;5.50;;;;;29.59;30.02;101765.72;5080766;27;46364;-69
2022/06/17 11:34:50;;;;;;;;;7.00;6.50;;;;;29.56;30.14;101753.16;5060016;28;45589;-69
2022/06/17 11:37:20;;;;;;;;;6.00;6.00;;;;;29.68;30.72;101764.84;5078348;27;45393;-70
2022/06/17 11:39:46;;;;;;;;;6.75;6.75;;;;;29.71;30.41;101762.66;5078899;27;45450;-69
2022/06/17 11:42:24;;;;;;;;;8.50;7.50;;;;;29.76;30.21;101759.44;5077861;27;45736;-69
2022/06/17 11:44:58;;;;;;;;;7.50;7.50;;;;;29.80;30.22;101755.38;5058879;28;45501;-70
2022/06/17 11:47:26;;;;;;;;;9.25;7.00;;;;;29.75;30.36;101752.19;5062648;27;45754;-70
2022/06/17 11:49:57;;;;;;;;;6.00;5.50;;;;;29.80;30.37;101738.03;5083363;27;45696;-70
2022/06/17 11:52:30;;;;;;;;;7.25;7.25;;;;;29.83;30.51;101730.31;5077439;27;45460;-70